sensor_id;sensor_type;location;lat;lon;timestamp;temperature;humidity
5605;DHT22;9297;47.258;11.362;2024-03-29T00:00:51;6.10;97.50
5605;DHT22;9297;47.258;11.362;2024-03-29T00:03:20;6.20;97.20
5605;DHT22;9297;47.258;11.362;2024-03-29T00:05:47;6.20;96.70
5605;DHT22;9297;47.258;11.362;2024-03-29T00:08:34;6.10;96.70
5605;DHT22;9297;47.258;11.362;2024-03-29T00:11:00;6.10;96.60
5605;DHT22;9297;47.258;11.362;2024-03-29T00:13:28;6.10;96.90
5605;DHT22;9297;47.258;11.362;2024-03-29T00:16:01;6.10;96.50
5605;DHT22;9297;47.258;11.362;2024-03-29T00:18:40;6.10;95.30
5605;DHT22;9297;47.258;11.362;2024-03-29T00:21:10;6.10;96.10
5605;DHT22;9297;47.258;11.362;2024-03-29T00:23:37;6.10;95.70
5605;DHT22;9297;47.258;11.362;2024-03-29T00:26:03;6.10;95.20
5605;DHT22;9297;47.258;11.362;2024-03-29T00:28:32;6.10;94.80
5605;DHT22;9297;47.258;11.362;2024-03-29T00:31:00;6.10;94.90
5605;DHT22;9297;47.258;11.362;2024-03-29T00:33:26;6.20;95.90
5605;DHT22;9297;47.258;11.362;2024-03-29T00:35:52;6.10;96.30
5605;DHT22;9297;47.258;11.362;2024-03-29T00:38:20;6.10;95.80
5605;DHT22;9297;47.258;11.362;2024-03-29T00:40:46;6.20;95.60
5605;DHT22;9297;47.258;11.362;2024-03-29T00:43:12;6.10;96.00
5605;DHT22;9297;47.258;11.362;2024-03-29T00:45:38;6.20;96.70
5605;DHT22;9297;47.258;11.362;2024-03-29T00:48:05;6.20;97.40
5605;DHT22;9297;47.258;11.362;2024-03-29T00:50:31;6.20;97.80
5605;DHT22;9297;47.258;11.362;2024-03-29T00:52:57;6.10;96.50
5605;DHT22;9297;47.258;11.362;2024-03-29T00:55:25;6.30;96.60
5605;DHT22;9297;47.258;11.362;2024-03-29T00:58:13;6.20;94.90
5605;DHT22;9297;47.258;11.362;2024-03-29T01:00:44;6.10;94.20
5605;DHT22;9297;47.258;11.362;2024-03-29T01:03:11;6.10;95.90
5605;DHT22;9297;47.258;11.362;2024-03-29T01:05:39;6.10;95.80
5605;DHT22;9297;47.258;11.362;2024-03-29T01:08:34;6.10;96.90
5605;DHT22;9297;47.258;11.362;2024-03-29T01:11:07;6.10;96.40
5605;DHT22;9297;47.258;11.362;2024-03-29T01:13:33;6.10;98.00
5605;DHT22;9297;47.258;11.362;2024-03-29T01:16:00;6.10;97.20
5605;DHT22;9297;47.258;11.362;2024-03-29T01:18:26;6.10;97.00
5605;DHT22;9297;47.258;11.362;2024-03-29T01:20:52;6.20;96.60
5605;DHT22;9297;47.258;11.362;2024-03-29T01:23:21;6.20;96.90
5605;DHT22;9297;47.258;11.362;2024-03-29T01:25:49;6.20;96.30
5605;DHT22;9297;47.258;11.362;2024-03-29T01:28:18;6.10;96.00
5605;DHT22;9297;47.258;11.362;2024-03-29T01:30:51;6.10;96.10
5605;DHT22;9297;47.258;11.362;2024-03-29T01:33:17;6.10;96.40
5605;DHT22;9297;47.258;11.362;2024-03-29T01:35:43;6.10;96.70
5605;DHT22;9297;47.258;11.362;2024-03-29T01:38:09;6.00;97.10
5605;DHT22;9297;47.258;11.362;2024-03-29T01:40:35;5.90;96.50
5605;DHT22;9297;47.258;11.362;2024-03-29T01:43:06;5.80;98.00
5605;DHT22;9297;47.258;11.362;2024-03-29T01:45:41;5.90;97.10
5605;DHT22;9297;47.258;11.362;2024-03-29T01:48:11;5.90;96.70
5605;DHT22;9297;47.258;11.362;2024-03-29T01:50:38;5.90;96.60
5605;DHT22;9297;47.258;11.362;2024-03-29T01:53:08;5.90;95.80
5605;DHT22;9297;47.258;11.362;2024-03-29T01:55:37;5.80;97.00
5605;DHT22;9297;47.258;11.362;2024-03-29T01:58:04;5.70;97.80
5605;DHT22;9297;47.258;11.362;2024-03-29T02:00:32;5.70;96.70
5605;DHT22;9297;47.258;11.362;2024-03-29T02:03:01;5.70;98.10
5605;DHT22;9297;47.258;11.362;2024-03-29T02:05:28;5.60;97.40
5605;DHT22;9297;47.258;11.362;2024-03-29T02:07:56;5.60;98.00
5605;DHT22;9297;47.258;11.362;2024-03-29T02:10:22;5.50;99.00
5605;DHT22;9297;47.258;11.362;2024-03-29T02:12:49;5.70;98.70
5605;DHT22;9297;47.258;11.362;2024-03-29T02:15:15;5.70;98.20
5605;DHT22;9297;47.258;11.362;2024-03-29T02:17:44;5.70;97.90
5605;DHT22;9297;47.258;11.362;2024-03-29T02:20:14;5.70;97.50
5605;DHT22;9297;47.258;11.362;2024-03-29T02:22:46;5.60;95.90
5605;DHT22;9297;47.258;11.362;2024-03-29T02:25:14;5.60;95.20
5605;DHT22;9297;47.258;11.362;2024-03-29T02:27:40;5.60;95.60
5605;DHT22;9297;47.258;11.362;2024-03-29T02:30:07;5.60;95.70
5605;DHT22;9297;47.258;11.362;2024-03-29T02:32:34;5.50;95.60
5605;DHT22;9297;47.258;11.362;2024-03-29T02:35:03;5.60;94.20
5605;DHT22;9297;47.258;11.362;2024-03-29T02:37:29;5.40;94.40
5605;DHT22;9297;47.258;11.362;2024-03-29T02:39:58;5.40;95.20
5605;DHT22;9297;47.258;11.362;2024-03-29T02:42:25;5.40;96.70
5605;DHT22;9297;47.258;11.362;2024-03-29T02:44:51;5.30;97.20
5605;DHT22;9297;47.258;11.362;2024-03-29T02:47:18;5.30;96.40
5605;DHT22;9297;47.258;11.362;2024-03-29T02:49:44;5.30;97.60
5605;DHT22;9297;47.258;11.362;2024-03-29T02:52:10;5.30;96.20
5605;DHT22;9297;47.258;11.362;2024-03-29T02:54:36;5.20;96.70
5605;DHT22;9297;47.258;11.362;2024-03-29T02:57:02;5.10;96.20
5605;DHT22;9297;47.258;11.362;2024-03-29T02:59:30;5.10;97.30
5605;DHT22;9297;47.258;11.362;2024-03-29T03:01:56;5.00;97.30
5605;DHT22;9297;47.258;11.362;2024-03-29T03:04:22;4.80;97.20
5605;DHT22;9297;47.258;11.362;2024-03-29T03:06:49;4.80;98.70
5605;DHT22;9297;47.258;11.362;2024-03-29T03:09:15;4.60;99.80
5605;DHT22;9297;47.258;11.362;2024-03-29T03:11:41;4.50;99.90
5605;DHT22;9297;47.258;11.362;2024-03-29T03:14:08;4.40;99.90
5605;DHT22;9297;47.258;11.362;2024-03-29T03:16:35;4.40;99.90
5605;DHT22;9297;47.258;11.362;2024-03-29T03:19:01;4.30;99.90
5605;DHT22;9297;47.258;11.362;2024-03-29T03:21:27;4.40;99.80
5605;DHT22;9297;47.258;11.362;2024-03-29T03:24:05;4.40;99.90
5605;DHT22;9297;47.258;11.362;2024-03-29T03:26:31;4.30;99.90
5605;DHT22;9297;47.258;11.362;2024-03-29T03:28:57;4.30;99.90
5605;DHT22;9297;47.258;11.362;2024-03-29T03:31:23;4.20;99.90
5605;DHT22;9297;47.258;11.362;2024-03-29T03:33:51;4.20;99.90
5605;DHT22;9297;47.258;11.362;2024-03-29T03:36:17;4.30;99.90
5605;DHT22;9297;47.258;11.362;2024-03-29T03:38:55;4.10;99.90
5605;DHT22;9297;47.258;11.362;2024-03-29T03:41:23;4.10;99.90
5605;DHT22;9297;47.258;11.362;2024-03-29T03:43:49;4.10;99.90
5605;DHT22;9297;47.258;11.362;2024-03-29T03:46:16;4.20;99.90
5605;DHT22;9297;47.258;11.362;2024-03-29T03:48:42;4.00;99.90
5605;DHT22;9297;47.258;11.362;2024-03-29T03:51:12;4.00;99.90
5605;DHT22;9297;47.258;11.362;2024-03-29T03:53:38;4.10;99.90
5605;DHT22;9297;47.258;11.362;2024-03-29T03:56:04;4.20;99.90
5605;DHT22;9297;47.258;11.362;2024-03-29T03:58:30;3.80;99.90
5605;DHT22;9297;47.258;11.362;2024-03-29T04:00:56;3.80;99.90
5605;DHT22;9297;47.258;11.362;2024-03-29T04:03:23;3.80;99.90
5605;DHT22;9297;47.258;11.362;2024-03-29T04:05:49;3.70;99.90
5605;DHT22;9297;47.258;11.362;2024-03-29T04:08:21;3.60;99.90
5605;DHT22;9297;47.258;11.362;2024-03-29T04:10:47;3.60;99.90
5605;DHT22;9297;47.258;11.362;2024-03-29T04:13:13;3.60;99.90
5605;DHT22;9297;47.258;11.362;2024-03-29T04:15:44;3.60;99.90
5605;DHT22;9297;47.258;11.362;2024-03-29T04:18:12;3.50;99.90
5605;DHT22;9297;47.258;11.362;2024-03-29T04:20:38;3.40;99.90
5605;DHT22;9297;47.258;11.362;2024-03-29T04:23:04;3.30;99.90
5605;DHT22;9297;47.258;11.362;2024-03-29T04:25:32;3.40;99.90
5605;DHT22;9297;47.258;11.362;2024-03-29T04:27:58;3.30;99.90
5605;DHT22;9297;47.258;11.362;2024-03-29T04:30:25;3.30;99.90
5605;DHT22;9297;47.258;11.362;2024-03-29T04:32:51;3.40;99.90
5605;DHT22;9297;47.258;11.362;2024-03-29T04:35:17;3.50;99.90
5605;DHT22;9297;47.258;11.362;2024-03-29T04:37:43;3.40;99.90
5605;DHT22;9297;47.258;11.362;2024-03-29T04:40:10;3.40;99.90
5605;DHT22;9297;47.258;11.362;2024-03-29T04:42:38;3.40;99.90
5605;DHT22;9297;47.258;11.362;2024-03-29T04:45:05;3.40;99.90
5605;DHT22;9297;47.258;11.362;2024-03-29T04:47:31;3.20;99.90
5605;DHT22;9297;47.258;11.362;2024-03-29T04:49:58;3.20;99.90
5605;DHT22;9297;47.258;11.362;2024-03-29T04:52:26;3.10;99.90
5605;DHT22;9297;47.258;11.362;2024-03-29T04:54:52;3.10;99.90
5605;DHT22;9297;47.258;11.362;2024-03-29T04:57:18;3.00;99.90
5605;DHT22;9297;47.258;11.362;2024-03-29T04:59:46;3.10;99.90
5605;DHT22;9297;47.258;11.362;2024-03-29T05:02:12;3.20;99.90
5605;DHT22;9297;47.258;11.362;2024-03-29T05:04:38;3.10;99.90
5605;DHT22;9297;47.258;11.362;2024-03-29T05:07:04;3.00;99.90
5605;DHT22;9297;47.258;11.362;2024-03-29T05:09:30;3.10;99.90
5605;DHT22;9297;47.258;11.362;2024-03-29T05:11:56;2.90;99.90
5605;DHT22;9297;47.258;11.362;2024-03-29T05:14:22;3.10;99.90
5605;DHT22;9297;47.258;11.362;2024-03-29T05:16:50;3.00;99.90
5605;DHT22;9297;47.258;11.362;2024-03-29T05:21:58;3.00;99.90
5605;DHT22;9297;47.258;11.362;2024-03-29T05:24:24;3.00;99.90
5605;DHT22;9297;47.258;11.362;2024-03-29T05:26:50;3.00;99.90
5605;DHT22;9297;47.258;11.362;2024-03-29T05:29:16;3.10;99.90
5605;DHT22;9297;47.258;11.362;2024-03-29T05:31:42;3.00;99.90
5605;DHT22;9297;47.258;11.362;2024-03-29T05:34:10;3.20;99.90
5605;DHT22;9297;47.258;11.362;2024-03-29T05:36:36;3.10;99.90
5605;DHT22;9297;47.258;11.362;2024-03-29T05:39:05;3.20;99.90
5605;DHT22;9297;47.258;11.362;2024-03-29T05:41:34;3.10;99.90
5605;DHT22;9297;47.258;11.362;2024-03-29T05:44:01;3.20;99.90
5605;DHT22;9297;47.258;11.362;2024-03-29T05:46:27;3.10;99.90
5605;DHT22;9297;47.258;11.362;2024-03-29T05:48:53;3.00;99.90
5605;DHT22;9297;47.258;11.362;2024-03-29T05:51:21;3.00;99.90
5605;DHT22;9297;47.258;11.362;2024-03-29T05:53:47;3.10;99.90
5605;DHT22;9297;47.258;11.362;2024-03-29T06:14:21;4.00;99.90
5605;DHT22;9297;47.258;11.362;2024-03-29T06:16:47;3.70;99.90
5605;DHT22;9297;47.258;11.362;2024-03-29T06:19:16;3.50;99.90
5605;DHT22;9297;47.258;11.362;2024-03-29T06:21:42;3.50;99.90
5605;DHT22;9297;47.258;11.362;2024-03-29T06:24:09;3.40;99.90
5605;DHT22;9297;47.258;11.362;2024-03-29T06:26:35;3.30;99.90
5605;DHT22;9297;47.258;11.362;2024-03-29T06:29:02;3.30;99.90
5605;DHT22;9297;47.258;11.362;2024-03-29T06:31:29;3.40;99.90
5605;DHT22;9297;47.258;11.362;2024-03-29T06:33:58;3.50;99.90
5605;DHT22;9297;47.258;11.362;2024-03-29T06:36:24;3.60;99.90
5605;DHT22;9297;47.258;11.362;2024-03-29T06:38:51;3.50;99.90
5605;DHT22;9297;47.258;11.362;2024-03-29T06:41:17;3.70;99.90
5605;DHT22;9297;47.258;11.362;2024-03-29T06:43:43;3.50;99.90
5605;DHT22;9297;47.258;11.362;2024-03-29T06:46:13;3.70;99.90
5605;DHT22;9297;47.258;11.362;2024-03-29T06:48:41;3.60;99.90
5605;DHT22;9297;47.258;11.362;2024-03-29T06:51:07;3.60;99.90
5605;DHT22;9297;47.258;11.362;2024-03-29T06:53:33;3.60;99.90
5605;DHT22;9297;47.258;11.362;2024-03-29T06:56:00;3.70;99.90
5605;DHT22;9297;47.258;11.362;2024-03-29T06:58:28;3.90;99.90
5605;DHT22;9297;47.258;11.362;2024-03-29T07:00:55;4.10;99.90
5605;DHT22;9297;47.258;11.362;2024-03-29T07:03:21;4.20;99.90
5605;DHT22;9297;47.258;11.362;2024-03-29T07:05:49;4.30;99.90
5605;DHT22;9297;47.258;11.362;2024-03-29T07:08:16;4.40;99.90
5605;DHT22;9297;47.258;11.362;2024-03-29T07:10:42;4.30;99.90
5605;DHT22;9297;47.258;11.362;2024-03-29T07:13:08;4.50;99.90
5605;DHT22;9297;47.258;11.362;2024-03-29T07:15:50;4.60;99.90
5605;DHT22;9297;47.258;11.362;2024-03-29T07:18:19;4.60;99.90
5605;DHT22;9297;47.258;11.362;2024-03-29T07:20:45;4.90;99.90
5605;DHT22;9297;47.258;11.362;2024-03-29T07:23:13;5.00;99.90
5605;DHT22;9297;47.258;11.362;2024-03-29T07:25:39;5.10;99.90
5605;DHT22;9297;47.258;11.362;2024-03-29T07:28:05;5.10;99.90
5605;DHT22;9297;47.258;11.362;2024-03-29T07:30:32;5.40;99.90
5605;DHT22;9297;47.258;11.362;2024-03-29T07:32:58;5.50;99.90
5605;DHT22;9297;47.258;11.362;2024-03-29T07:35:24;5.50;99.90
5605;DHT22;9297;47.258;11.362;2024-03-29T07:37:50;5.80;99.90
5605;DHT22;9297;47.258;11.362;2024-03-29T07:40:20;5.70;99.90
5605;DHT22;9297;47.258;11.362;2024-03-29T07:42:46;5.70;99.90
5605;DHT22;9297;47.258;11.362;2024-03-29T07:45:12;5.90;99.90
5605;DHT22;9297;47.258;11.362;2024-03-29T07:47:38;6.10;99.90
5605;DHT22;9297;47.258;11.362;2024-03-29T07:50:16;6.00;99.90
5605;DHT22;9297;47.258;11.362;2024-03-29T07:52:47;6.30;99.90
5605;DHT22;9297;47.258;11.362;2024-03-29T07:55:19;6.30;99.90
5605;DHT22;9297;47.258;11.362;2024-03-29T07:57:45;6.40;99.90
5605;DHT22;9297;47.258;11.362;2024-03-29T08:00:13;6.60;99.90
5605;DHT22;9297;47.258;11.362;2024-03-29T08:02:39;6.70;99.90
5605;DHT22;9297;47.258;11.362;2024-03-29T08:05:05;6.90;99.90
5605;DHT22;9297;47.258;11.362;2024-03-29T08:07:32;7.10;99.90
5605;DHT22;9297;47.258;11.362;2024-03-29T08:09:58;7.00;99.90
5605;DHT22;9297;47.258;11.362;2024-03-29T08:12:28;7.20;99.90
5605;DHT22;9297;47.258;11.362;2024-03-29T08:14:57;7.40;99.90
5605;DHT22;9297;47.258;11.362;2024-03-29T08:17:26;7.50;97.70
5605;DHT22;9297;47.258;11.362;2024-03-29T08:30:58;9.30;88.70
5605;DHT22;9297;47.258;11.362;2024-03-29T08:33:24;10.10;79.40
5605;DHT22;9297;47.258;11.362;2024-03-29T08:35:50;10.50;72.90
5605;DHT22;9297;47.258;11.362;2024-03-29T08:38:16;10.80;74.20
5605;DHT22;9297;47.258;11.362;2024-03-29T08:40:42;11.00;72.90
5605;DHT22;9297;47.258;11.362;2024-03-29T08:43:08;11.20;71.40
5605;DHT22;9297;47.258;11.362;2024-03-29T08:45:34;11.30;69.90
5605;DHT22;9297;47.258;11.362;2024-03-29T08:48:02;11.40;69.90
5605;DHT22;9297;47.258;11.362;2024-03-29T08:50:28;11.70;68.00
5605;DHT22;9297;47.258;11.362;2024-03-29T08:52:54;11.80;68.40
5605;DHT22;9297;47.258;11.362;2024-03-29T08:55:20;12.00;63.40
5605;DHT22;9297;47.258;11.362;2024-03-29T08:57:46;12.10;65.20
5605;DHT22;9297;47.258;11.362;2024-03-29T09:00:13;12.10;64.60
5605;DHT22;9297;47.258;11.362;2024-03-29T09:02:39;12.30;62.80
5605;DHT22;9297;47.258;11.362;2024-03-29T09:05:06;12.30;61.10
5605;DHT22;9297;47.258;11.362;2024-03-29T09:07:32;12.40;61.20
5605;DHT22;9297;47.258;11.362;2024-03-29T09:09:59;12.50;59.50
5605;DHT22;9297;47.258;11.362;2024-03-29T09:12:25;12.40;58.90
5605;DHT22;9297;47.258;11.362;2024-03-29T09:14:51;12.70;59.40
5605;DHT22;9297;47.258;11.362;2024-03-29T09:17:17;13.00;61.60
5605;DHT22;9297;47.258;11.362;2024-03-29T09:19:43;12.80;60.50
5605;DHT22;9297;47.258;11.362;2024-03-29T09:22:10;13.20;61.30
5605;DHT22;9297;47.258;11.362;2024-03-29T09:24:36;13.30;58.90
5605;DHT22;9297;47.258;11.362;2024-03-29T09:27:02;13.40;56.80
5605;DHT22;9297;47.258;11.362;2024-03-29T09:29:28;13.80;56.00
5605;DHT22;9297;47.258;11.362;2024-03-29T09:31:54;13.70;56.70
5605;DHT22;9297;47.258;11.362;2024-03-29T09:34:20;13.90;54.70
5605;DHT22;9297;47.258;11.362;2024-03-29T09:36:46;14.00;56.10
5605;DHT22;9297;47.258;11.362;2024-03-29T09:39:14;14.10;57.20
5605;DHT22;9297;47.258;11.362;2024-03-29T09:41:40;14.30;54.40
5605;DHT22;9297;47.258;11.362;2024-03-29T09:44:09;14.60;54.70
5605;DHT22;9297;47.258;11.362;2024-03-29T09:46:35;15.00;55.20
5605;DHT22;9297;47.258;11.362;2024-03-29T09:49:01;15.00;53.20
5605;DHT22;9297;47.258;11.362;2024-03-29T09:51:29;15.00;51.90
5605;DHT22;9297;47.258;11.362;2024-03-29T09:53:57;14.90;50.00
5605;DHT22;9297;47.258;11.362;2024-03-29T09:56:26;15.10;51.50
5605;DHT22;9297;47.258;11.362;2024-03-29T09:58:53;15.10;51.90
5605;DHT22;9297;47.258;11.362;2024-03-29T10:01:19;15.50;53.10
5605;DHT22;9297;47.258;11.362;2024-03-29T10:03:49;15.60;48.80
5605;DHT22;9297;47.258;11.362;2024-03-29T10:06:15;15.80;50.10
5605;DHT22;9297;47.258;11.362;2024-03-29T10:08:42;15.80;50.60
5605;DHT22;9297;47.258;11.362;2024-03-29T10:11:08;15.90;48.70
5605;DHT22;9297;47.258;11.362;2024-03-29T10:13:36;15.70;47.90
5605;DHT22;9297;47.258;11.362;2024-03-29T10:16:05;15.60;47.70
5605;DHT22;9297;47.258;11.362;2024-03-29T10:18:33;15.50;47.30
5605;DHT22;9297;47.258;11.362;2024-03-29T10:21:00;15.80;49.80
5605;DHT22;9297;47.258;11.362;2024-03-29T10:23:26;15.70;46.20
5605;DHT22;9297;47.258;11.362;2024-03-29T10:25:52;15.80;47.50
5605;DHT22;9297;47.258;11.362;2024-03-29T10:28:19;16.00;47.90
5605;DHT22;9297;47.258;11.362;2024-03-29T10:30:46;15.40;45.60
5605;DHT22;9297;47.258;11.362;2024-03-29T10:33:12;15.50;48.60
5605;DHT22;9297;47.258;11.362;2024-03-29T10:35:41;15.40;49.00
5605;DHT22;9297;47.258;11.362;2024-03-29T10:38:08;15.10;47.40
5605;DHT22;9297;47.258;11.362;2024-03-29T10:40:35;15.20;47.20
5605;DHT22;9297;47.258;11.362;2024-03-29T10:43:02;15.20;47.50
5605;DHT22;9297;47.258;11.362;2024-03-29T10:45:29;15.00;47.80
5605;DHT22;9297;47.258;11.362;2024-03-29T10:47:57;15.10;48.00
5605;DHT22;9297;47.258;11.362;2024-03-29T10:50:24;15.60;49.80
5605;DHT22;9297;47.258;11.362;2024-03-29T10:52:52;15.90;49.40
5605;DHT22;9297;47.258;11.362;2024-03-29T10:55:20;16.30;47.30
5605;DHT22;9297;47.258;11.362;2024-03-29T10:57:49;16.60;46.80
5605;DHT22;9297;47.258;11.362;2024-03-29T11:00:18;16.70;45.90
5605;DHT22;9297;47.258;11.362;2024-03-29T11:02:48;16.90;48.00
5605;DHT22;9297;47.258;11.362;2024-03-29T11:05:16;17.00;44.50
5605;DHT22;9297;47.258;11.362;2024-03-29T11:07:44;16.90;41.90
5605;DHT22;9297;47.258;11.362;2024-03-29T11:10:14;16.30;43.90
5605;DHT22;9297;47.258;11.362;2024-03-29T11:12:58;16.40;44.50
5605;DHT22;9297;47.258;11.362;2024-03-29T11:15:28;16.50;43.70
5605;DHT22;9297;47.258;11.362;2024-03-29T11:17:54;16.30;44.10
5605;DHT22;9297;47.258;11.362;2024-03-29T11:20:23;16.00;44.50
5605;DHT22;9297;47.258;11.362;2024-03-29T11:22:49;16.10;46.40
5605;DHT22;9297;47.258;11.362;2024-03-29T11:25:15;16.50;44.70
5605;DHT22;9297;47.258;11.362;2024-03-29T11:27:41;16.80;45.00
5605;DHT22;9297;47.258;11.362;2024-03-29T11:30:08;17.20;44.30
5605;DHT22;9297;47.258;11.362;2024-03-29T11:32:35;17.20;42.90
5605;DHT22;9297;47.258;11.362;2024-03-29T11:35:01;17.60;42.70
5605;DHT22;9297;47.258;11.362;2024-03-29T11:37:31;17.50;39.40
5605;DHT22;9297;47.258;11.362;2024-03-29T11:39:59;17.90;43.20
5605;DHT22;9297;47.258;11.362;2024-03-29T11:42:36;17.90;39.50
5605;DHT22;9297;47.258;11.362;2024-03-29T11:45:02;17.20;41.20
5605;DHT22;9297;47.258;11.362;2024-03-29T11:47:29;17.70;40.60
5605;DHT22;9297;47.258;11.362;2024-03-29T11:49:56;18.00;39.30
5605;DHT22;9297;47.258;11.362;2024-03-29T11:52:22;18.10;39.40
5605;DHT22;9297;47.258;11.362;2024-03-29T11:54:49;18.30;39.50
5605;DHT22;9297;47.258;11.362;2024-03-29T11:57:15;18.20;38.30
5605;DHT22;9297;47.258;11.362;2024-03-29T11:59:41;17.60;39.20
5605;DHT22;9297;47.258;11.362;2024-03-29T12:02:13;18.00;39.70
5605;DHT22;9297;47.258;11.362;2024-03-29T12:04:39;17.80;39.50
5605;DHT22;9297;47.258;11.362;2024-03-29T12:07:05;17.70;40.40
5605;DHT22;9297;47.258;11.362;2024-03-29T12:09:32;17.70;40.60
5605;DHT22;9297;47.258;11.362;2024-03-29T12:11:59;18.00;40.20
5605;DHT22;9297;47.258;11.362;2024-03-29T12:14:25;18.40;39.30
5605;DHT22;9297;47.258;11.362;2024-03-29T12:16:51;18.10;38.60
5605;DHT22;9297;47.258;11.362;2024-03-29T12:19:23;18.30;38.60
5605;DHT22;9297;47.258;11.362;2024-03-29T12:21:50;18.60;39.90
5605;DHT22;9297;47.258;11.362;2024-03-29T12:24:16;18.90;40.00
5605;DHT22;9297;47.258;11.362;2024-03-29T12:26:42;18.70;37.20
5605;DHT22;9297;47.258;11.362;2024-03-29T12:29:10;19.60;38.20
5605;DHT22;9297;47.258;11.362;2024-03-29T12:31:36;19.60;37.90
5605;DHT22;9297;47.258;11.362;2024-03-29T12:34:02;19.90;37.40
5605;DHT22;9297;47.258;11.362;2024-03-29T12:36:28;19.70;37.10
5605;DHT22;9297;47.258;11.362;2024-03-29T12:38:54;19.60;37.20
5605;DHT22;9297;47.258;11.362;2024-03-29T12:41:23;19.70;36.60
5605;DHT22;9297;47.258;11.362;2024-03-29T12:43:49;19.30;37.70
5605;DHT22;9297;47.258;11.362;2024-03-29T12:46:17;19.10;36.60
5605;DHT22;9297;47.258;11.362;2024-03-29T12:48:43;19.00;36.80
5605;DHT22;9297;47.258;11.362;2024-03-29T12:51:10;19.10;36.40
5605;DHT22;9297;47.258;11.362;2024-03-29T12:53:38;18.70;36.80
5605;DHT22;9297;47.258;11.362;2024-03-29T12:56:05;18.80;37.30
5605;DHT22;9297;47.258;11.362;2024-03-29T12:58:31;18.50;38.30
5605;DHT22;9297;47.258;11.362;2024-03-29T13:00:57;18.30;37.50
5605;DHT22;9297;47.258;11.362;2024-03-29T13:03:25;18.00;38.10
5605;DHT22;9297;47.258;11.362;2024-03-29T13:05:51;17.70;38.10
5605;DHT22;9297;47.258;11.362;2024-03-29T13:08:17;17.60;39.40
5605;DHT22;9297;47.258;11.362;2024-03-29T13:10:43;17.40;39.90
5605;DHT22;9297;47.258;11.362;2024-03-29T13:13:10;17.30;39.80
5605;DHT22;9297;47.258;11.362;2024-03-29T13:15:37;17.40;39.30
5605;DHT22;9297;47.258;11.362;2024-03-29T13:18:04;17.40;39.50
5605;DHT22;9297;47.258;11.362;2024-03-29T13:20:36;17.50;40.80
5605;DHT22;9297;47.258;11.362;2024-03-29T13:23:02;17.50;40.40
5605;DHT22;9297;47.258;11.362;2024-03-29T13:25:28;17.60;38.30
5605;DHT22;9297;47.258;11.362;2024-03-29T13:27:55;17.70;38.60
5605;DHT22;9297;47.258;11.362;2024-03-29T13:30:21;18.00;38.50
5605;DHT22;9297;47.258;11.362;2024-03-29T13:32:48;18.40;37.50
5605;DHT22;9297;47.258;11.362;2024-03-29T13:35:14;19.00;38.40
5605;DHT22;9297;47.258;11.362;2024-03-29T13:37:43;18.80;38.10
5605;DHT22;9297;47.258;11.362;2024-03-29T13:40:09;18.90;39.30
5605;DHT22;9297;47.258;11.362;2024-03-29T13:42:35;18.60;38.50
5605;DHT22;9297;47.258;11.362;2024-03-29T13:45:01;18.40;38.00
5605;DHT22;9297;47.258;11.362;2024-03-29T13:47:27;18.30;39.30
5605;DHT22;9297;47.258;11.362;2024-03-29T13:49:53;18.00;39.70
5605;DHT22;9297;47.258;11.362;2024-03-29T13:52:19;17.90;39.00
5605;DHT22;9297;47.258;11.362;2024-03-29T13:54:47;17.90;38.50
5605;DHT22;9297;47.258;11.362;2024-03-29T13:57:13;17.70;39.20
5605;DHT22;9297;47.258;11.362;2024-03-29T13:59:39;17.40;39.80
5605;DHT22;9297;47.258;11.362;2024-03-29T14:02:05;17.30;40.70
5605;DHT22;9297;47.258;11.362;2024-03-29T14:04:31;17.40;40.50
5605;DHT22;9297;47.258;11.362;2024-03-29T14:06:57;17.50;40.90
5605;DHT22;9297;47.258;11.362;2024-03-29T14:09:23;17.70;40.10
5605;DHT22;9297;47.258;11.362;2024-03-29T14:11:50;17.60;39.60
5605;DHT22;9297;47.258;11.362;2024-03-29T14:14:16;17.60;41.40
5605;DHT22;9297;47.258;11.362;2024-03-29T14:16:42;17.40;41.10
5605;DHT22;9297;47.258;11.362;2024-03-29T14:19:08;17.10;41.80
5605;DHT22;9297;47.258;11.362;2024-03-29T14:21:33;16.80;41.80
5605;DHT22;9297;47.258;11.362;2024-03-29T14:23:59;16.90;42.60
5605;DHT22;9297;47.258;11.362;2024-03-29T14:26:25;16.70;43.40
5605;DHT22;9297;47.258;11.362;2024-03-29T14:28:53;16.60;43.60
5605;DHT22;9297;47.258;11.362;2024-03-29T14:31:19;16.60;43.80
5605;DHT22;9297;47.258;11.362;2024-03-29T14:33:46;16.90;43.40
5605;DHT22;9297;47.258;11.362;2024-03-29T14:36:11;17.10;42.50
5605;DHT22;9297;47.258;11.362;2024-03-29T14:38:37;17.50;42.60
5605;DHT22;9297;47.258;11.362;2024-03-29T14:41:03;17.60;42.60
5605;DHT22;9297;47.258;11.362;2024-03-29T14:43:29;17.50;40.70
5605;DHT22;9297;47.258;11.362;2024-03-29T14:45:57;17.90;39.80
5605;DHT22;9297;47.258;11.362;2024-03-29T14:48:23;17.80;40.90
5605;DHT22;9297;47.258;11.362;2024-03-29T14:50:49;17.70;39.70
5605;DHT22;9297;47.258;11.362;2024-03-29T14:53:15;17.90;40.50
5605;DHT22;9297;47.258;11.362;2024-03-29T14:55:40;17.30;41.00
5605;DHT22;9297;47.258;11.362;2024-03-29T14:58:06;17.40;41.00
5605;DHT22;9297;47.258;11.362;2024-03-29T15:00:33;17.30;41.80
5605;DHT22;9297;47.258;11.362;2024-03-29T15:03:00;17.40;41.00
5605;DHT22;9297;47.258;11.362;2024-03-29T15:05:26;17.40;40.80
5605;DHT22;9297;47.258;11.362;2024-03-29T15:07:52;17.60;39.30
5605;DHT22;9297;47.258;11.362;2024-03-29T15:10:18;17.60;39.10
5605;DHT22;9297;47.258;11.362;2024-03-29T15:12:44;17.30;39.50
5605;DHT22;9297;47.258;11.362;2024-03-29T15:15:10;17.40;40.40
5605;DHT22;9297;47.258;11.362;2024-03-29T15:17:36;17.40;39.80
5605;DHT22;9297;47.258;11.362;2024-03-29T15:20:03;17.40;39.60
5605;DHT22;9297;47.258;11.362;2024-03-29T15:22:30;17.50;40.60
5605;DHT22;9297;47.258;11.362;2024-03-29T15:24:55;17.30;39.90
5605;DHT22;9297;47.258;11.362;2024-03-29T15:27:21;17.20;41.00
5605;DHT22;9297;47.258;11.362;2024-03-29T15:29:47;17.50;40.00
5605;DHT22;9297;47.258;11.362;2024-03-29T15:32:13;17.40;39.20
5605;DHT22;9297;47.258;11.362;2024-03-29T15:34:39;17.50;39.40
5605;DHT22;9297;47.258;11.362;2024-03-29T15:37:07;17.50;39.10
5605;DHT22;9297;47.258;11.362;2024-03-29T15:39:33;17.40;39.70
5605;DHT22;9297;47.258;11.362;2024-03-29T15:41:59;17.50;39.20
5605;DHT22;9297;47.258;11.362;2024-03-29T15:44:25;17.30;39.60
5605;DHT22;9297;47.258;11.362;2024-03-29T15:46:51;17.30;39.50
5605;DHT22;9297;47.258;11.362;2024-03-29T15:49:17;17.30;39.90
5605;DHT22;9297;47.258;11.362;2024-03-29T15:51:43;17.20;40.10
5605;DHT22;9297;47.258;11.362;2024-03-29T15:54:10;17.20;40.20
5605;DHT22;9297;47.258;11.362;2024-03-29T15:56:36;17.20;40.20
5605;DHT22;9297;47.258;11.362;2024-03-29T15:59:02;17.10;39.80
5605;DHT22;9297;47.258;11.362;2024-03-29T16:01:28;17.20;40.80
5605;DHT22;9297;47.258;11.362;2024-03-29T16:03:54;17.20;40.20
5605;DHT22;9297;47.258;11.362;2024-03-29T16:06:20;17.20;40.20
5605;DHT22;9297;47.258;11.362;2024-03-29T16:08:46;17.10;40.60
5605;DHT22;9297;47.258;11.362;2024-03-29T16:11:13;17.10;40.50
5605;DHT22;9297;47.258;11.362;2024-03-29T16:13:39;17.10;40.50
5605;DHT22;9297;47.258;11.362;2024-03-29T16:16:05;17.20;40.10
5605;DHT22;9297;47.258;11.362;2024-03-29T16:18:31;17.10;40.10
5605;DHT22;9297;47.258;11.362;2024-03-29T16:20:58;17.10;39.80
5605;DHT22;9297;47.258;11.362;2024-03-29T16:23:24;17.00;40.40
5605;DHT22;9297;47.258;11.362;2024-03-29T16:25:51;17.10;40.70